Etusivu
METAR-TAF:

METAR-TAF

Lentoasemat :

Cherokee County Airport

Jacksonville, Texas, Yhdysvallat

Leveyspiiri: 31-52-09N, Pituuspiiri: 095-13-02W, korkeus merenpinnasta: 206 m

Tämänhetkinen sää

Tämä raportti tehtiin 36 minuuttia sitten, kello 13.15 UTC
Tuuli 7 kn etelästä
Lämpötila 20°C
Kosteus 94%
Ilmanpaine 1014 hPa
Näkyvyys: 16.1 km
Hajonneita pilviä 3300 ft:n korkeudessa

METAR: KJSO 161315Z AUTO 19007KT 10SM BKN033 20/19 A2993 RMK AO2 T02000186

Aika: 08:51 (13:51 UTC)


TAF: puuttuu

Säähavainnot ja -ennusteet yli 4000 lentoasemalta (METAR- ja TAF-raportit).

Käytössä olevat sääasemat on merkitty karttaan keltaisilla ja punaisilla pisteillä.

Aseta hiiri pisteen päälle nähdäksesi sääaseman nimen.

Klikkaa sitten nähdäksesi säähavainnot ja -ennusteet.

Kartan vaihtaminen: klikkaa mustalla rastilla varustettuja vihreitä pisteitä, niin voit zoomata sisään; viivalla varustettua vihreää pistettä, niin voit zoomata ulos tai vihreitä nuolia, niin pääset viereisille kartoille.


METAR-TAF: